sensor_id;sensor_type;location;lat;lon;timestamp;pressure;altitude;pressure_sealevel;temperature;humidity
16694;BME280;39538;52.196;9.892;2022-10-16T00:01:07;100090.91;;;13.63;94.37
16694;BME280;39538;52.196;9.892;2022-10-16T00:03:34;100084.75;;;13.63;93.22
16694;BME280;39538;52.196;9.892;2022-10-16T00:06:01;100088.66;;;13.59;94.02
16694;BME280;39538;52.196;9.892;2022-10-16T00:08:28;100100.91;;;13.61;93.37
16694;BME280;39538;52.196;9.892;2022-10-16T00:11:00;100092.03;;;13.61;92.55
16694;BME280;39538;52.196;9.892;2022-10-16T00:13:28;100097.53;;;13.59;91.78
16694;BME280;39538;52.196;9.892;2022-10-16T00:15:55;100088.97;;;13.56;91.85
16694;BME280;39538;52.196;9.892;2022-10-16T00:18:22;100092.63;;;13.55;91.32
16694;BME280;39538;52.196;9.892;2022-10-16T00:20:48;100091.34;;;13.59;91.64
16694;BME280;39538;52.196;9.892;2022-10-16T00:23:15;100105.53;;;13.59;91.22
16694;BME280;39538;52.196;9.892;2022-10-16T00:25:41;100096.84;;;13.57;91.44
16694;BME280;39538;52.196;9.892;2022-10-16T00:28:09;100104.00;;;13.57;91.48
16694;BME280;39538;52.196;9.892;2022-10-16T00:30:37;100104.00;;;13.57;91.87
16694;BME280;39538;52.196;9.892;2022-10-16T00:33:04;100100.91;;;13.61;91.50
16694;BME280;39538;52.196;9.892;2022-10-16T00:35:30;100112.00;;;13.57;91.98
16694;BME280;39538;52.196;9.892;2022-10-16T00:37:57;100118.88;;;13.59;92.48
16694;BME280;39538;52.196;9.892;2022-10-16T00:40:23;100116.47;;;13.56;92.83
16694;BME280;39538;52.196;9.892;2022-10-16T00:42:50;100130.50;;;13.58;93.37
16694;BME280;39538;52.196;9.892;2022-10-16T00:45:18;100125.06;;;13.60;93.51
16694;BME280;39538;52.196;9.892;2022-10-16T00:47:45;100120.41;;;13.62;93.71
16694;BME280;39538;52.196;9.892;2022-10-16T00:50:21;100126.88;;;13.69;93.58
16694;BME280;39538;52.196;9.892;2022-10-16T00:52:51;100129.84;;;13.66;93.82
16694;BME280;39538;52.196;9.892;2022-10-16T00:55:18;100129.84;;;13.66;93.90
16694;BME280;39538;52.196;9.892;2022-10-16T00:57:46;100128.56;;;13.60;94.58
16694;BME280;39538;52.196;9.892;2022-10-16T01:00:15;100131.22;;;13.60;94.90
16694;BME280;39538;52.196;9.892;2022-10-16T01:02:43;100129.97;;;13.64;95.29
16694;BME280;39538;52.196;9.892;2022-10-16T01:05:10;100133.34;;;13.66;95.80
16694;BME280;39538;52.196;9.892;2022-10-16T01:07:42;100134.91;;;13.69;95.83
16694;BME280;39538;52.196;9.892;2022-10-16T01:10:19;100130.25;;;13.71;96.25
16694;BME280;39538;52.196;9.892;2022-10-16T01:12:50;100127.31;;;13.74;96.00
16694;BME280;39538;52.196;9.892;2022-10-16T01:15:22;100119.03;;;13.77;96.02
16694;BME280;39538;52.196;9.892;2022-10-16T01:17:57;100124.94;;;13.81;96.10
16694;BME280;39538;52.196;9.892;2022-10-16T01:20:27;100113.97;;;13.74;96.30
16694;BME280;39538;52.196;9.892;2022-10-16T01:23:05;100122.25;;;13.71;96.77
16694;BME280;39538;52.196;9.892;2022-10-16T01:25:44;100114.97;;;13.73;96.78
16694;BME280;39538;52.196;9.892;2022-10-16T01:28:17;100125.91;;;13.70;97.37
16694;BME280;39538;52.196;9.892;2022-10-16T01:30:46;100120.72;;;13.68;97.43
16694;BME280;39538;52.196;9.892;2022-10-16T01:33:17;100126.59;;;13.72;97.05
16694;BME280;39538;52.196;9.892;2022-10-16T01:35:47;100133.66;;;13.73;97.04
16694;BME280;39538;52.196;9.892;2022-10-16T01:38:19;100126.88;;;13.69;97.24
16694;BME280;39538;52.196;9.892;2022-10-16T01:40:51;100131.09;;;13.72;97.38
16694;BME280;39538;52.196;9.892;2022-10-16T01:43:25;100135.03;;;13.67;97.27
16694;BME280;39538;52.196;9.892;2022-10-16T01:45:53;100149.34;;;13.66;97.38
16694;BME280;39538;52.196;9.892;2022-10-16T01:48:21;100144.28;;;13.63;97.77
16694;BME280;39538;52.196;9.892;2022-10-16T01:50:53;100149.59;;;13.63;97.51
16694;BME280;39538;52.196;9.892;2022-10-16T01:53:22;100153.25;;;13.62;97.76
16694;BME280;39538;52.196;9.892;2022-10-16T01:55:50;100152.72;;;13.68;97.56
16694;BME280;39538;52.196;9.892;2022-10-16T01:58:18;100149.66;;;13.73;97.22
16694;BME280;39538;52.196;9.892;2022-10-16T02:00:47;100149.06;;;13.79;97.34
16694;BME280;39538;52.196;9.892;2022-10-16T02:03:16;100155.13;;;13.81;96.79
16694;BME280;39538;52.196;9.892;2022-10-16T02:05:46;100161.44;;;13.80;96.75
16694;BME280;39538;52.196;9.892;2022-10-16T02:08:13;100166.38;;;13.85;96.61
16694;BME280;39538;52.196;9.892;2022-10-16T02:10:40;100163.41;;;13.78;96.93
16694;BME280;39538;52.196;9.892;2022-10-16T02:13:10;100174.34;;;13.75;96.60
16694;BME280;39538;52.196;9.892;2022-10-16T02:15:37;100171.81;;;13.74;96.78
16694;BME280;39538;52.196;9.892;2022-10-16T02:18:06;100177.56;;;13.69;96.94
16694;BME280;39538;52.196;9.892;2022-10-16T02:20:38;100177.28;;;13.62;97.52
16694;BME280;39538;52.196;9.892;2022-10-16T02:23:11;100181.88;;;13.51;97.71
16694;BME280;39538;52.196;9.892;2022-10-16T02:25:41;100187.47;;;13.47;98.13
16694;BME280;39538;52.196;9.892;2022-10-16T02:28:15;100181.56;;;13.44;98.31
16694;BME280;39538;52.196;9.892;2022-10-16T02:30:45;100187.03;;;13.42;98.77
16694;BME280;39538;52.196;9.892;2022-10-16T02:33:16;100186.78;;;13.45;98.66
16694;BME280;39538;52.196;9.892;2022-10-16T02:35:45;100186.91;;;13.44;98.84
16694;BME280;39538;52.196;9.892;2022-10-16T02:38:14;100183.38;;;13.43;98.73
16694;BME280;39538;52.196;9.892;2022-10-16T02:40:41;100181.13;;;13.39;99.01
16694;BME280;39538;52.196;9.892;2022-10-16T02:43:08;100184.13;;;13.24;99.55
16694;BME280;39538;52.196;9.892;2022-10-16T02:45:35;100184.59;;;13.30;99.94
16694;BME280;39538;52.196;9.892;2022-10-16T02:48:02;100177.66;;;13.17;99.96
16694;BME280;39538;52.196;9.892;2022-10-16T02:50:30;100179.44;;;13.17;100.00
16694;BME280;39538;52.196;9.892;2022-10-16T02:52:57;100178.28;;;13.10;100.00
16694;BME280;39538;52.196;9.892;2022-10-16T02:55:23;100182.91;;;13.07;100.00
16694;BME280;39538;52.196;9.892;2022-10-16T02:57:50;100177.84;;;13.04;100.00
16694;BME280;39538;52.196;9.892;2022-10-16T03:00:17;100174.75;;;12.99;100.00
16694;BME280;39538;52.196;9.892;2022-10-16T03:02:43;100180.34;;;12.96;100.00
16694;BME280;39538;52.196;9.892;2022-10-16T03:05:10;100172.28;;;12.86;100.00
16694;BME280;39538;52.196;9.892;2022-10-16T03:07:38;100164.00;;;12.80;100.00
16694;BME280;39538;52.196;9.892;2022-10-16T03:10:06;100167.88;;;12.76;100.00
16694;BME280;39538;52.196;9.892;2022-10-16T03:12:33;100166.56;;;12.70;100.00
16694;BME280;39538;52.196;9.892;2022-10-16T03:14:59;100166.84;;;12.67;100.00
16694;BME280;39538;52.196;9.892;2022-10-16T03:17:26;100163.63;;;12.63;100.00
16694;BME280;39538;52.196;9.892;2022-10-16T03:19:52;100166.50;;;12.60;100.00
16694;BME280;39538;52.196;9.892;2022-10-16T03:22:19;100167.06;;;12.54;100.00
16694;BME280;39538;52.196;9.892;2022-10-16T03:24:46;100168.94;;;12.42;100.00
16694;BME280;39538;52.196;9.892;2022-10-16T03:27:13;100166.31;;;12.31;100.00
16694;BME280;39538;52.196;9.892;2022-10-16T03:29:40;100165.88;;;12.26;100.00
16694;BME280;39538;52.196;9.892;2022-10-16T03:32:06;100180.25;;;12.23;100.00
16694;BME280;39538;52.196;9.892;2022-10-16T03:34:32;100178.84;;;12.19;100.00
16694;BME280;39538;52.196;9.892;2022-10-16T03:36:59;100174.00;;;12.13;100.00
16694;BME280;39538;52.196;9.892;2022-10-16T03:39:25;100174.50;;;12.07;100.00
16694;BME280;39538;52.196;9.892;2022-10-16T03:41:53;100185.41;;;12.04;100.00
16694;BME280;39538;52.196;9.892;2022-10-16T03:44:20;100183.00;;;12.01;100.00
16694;BME280;39538;52.196;9.892;2022-10-16T03:46:46;100183.38;;;11.96;100.00
16694;BME280;39538;52.196;9.892;2022-10-16T03:49:13;100180.84;;;11.95;100.00
16694;BME280;39538;52.196;9.892;2022-10-16T03:51:40;100181.94;;;11.92;100.00
16694;BME280;39538;52.196;9.892;2022-10-16T03:54:06;100180.38;;;11.90;100.00
16694;BME280;39538;52.196;9.892;2022-10-16T03:56:33;100178.81;;;11.87;100.00
16694;BME280;39538;52.196;9.892;2022-10-16T03:59:00;100180.25;;;11.91;100.00
16694;BME280;39538;52.196;9.892;2022-10-16T04:01:27;100178.19;;;11.95;100.00
16694;BME280;39538;52.196;9.892;2022-10-16T04:03:53;100191.72;;;12.03;100.00
16694;BME280;39538;52.196;9.892;2022-10-16T04:06:20;100183.47;;;12.06;100.00
16694;BME280;39538;52.196;9.892;2022-10-16T04:08:47;100176.56;;;12.15;100.00
16694;BME280;39538;52.196;9.892;2022-10-16T04:11:13;100166.25;;;12.21;100.00
16694;BME280;39538;52.196;9.892;2022-10-16T04:13:40;100169.38;;;12.27;100.00
16694;BME280;39538;52.196;9.892;2022-10-16T04:16:08;100183.63;;;12.26;100.00
16694;BME280;39538;52.196;9.892;2022-10-16T04:18:34;100190.91;;;12.23;100.00
16694;BME280;39538;52.196;9.892;2022-10-16T04:21:03;100205.56;;;12.18;100.00
16694;BME280;39538;52.196;9.892;2022-10-16T04:23:29;100206.41;;;12.18;100.00
16694;BME280;39538;52.196;9.892;2022-10-16T04:25:56;100194.53;;;12.22;100.00
16694;BME280;39538;52.196;9.892;2022-10-16T04:28:22;100210.50;;;12.22;100.00
16694;BME280;39538;52.196;9.892;2022-10-16T04:30:49;100214.84;;;12.23;100.00
16694;BME280;39538;52.196;9.892;2022-10-16T04:33:17;100198.88;;;12.23;100.00
16694;BME280;39538;52.196;9.892;2022-10-16T04:35:43;100211.94;;;12.27;100.00
16694;BME280;39538;52.196;9.892;2022-10-16T04:38:10;100208.06;;;12.31;100.00
16694;BME280;39538;52.196;9.892;2022-10-16T04:40:36;100209.16;;;12.28;100.00
16694;BME280;39538;52.196;9.892;2022-10-16T04:43:03;100206.72;;;12.36;100.00
16694;BME280;39538;52.196;9.892;2022-10-16T04:45:30;100194.84;;;12.40;100.00
16694;BME280;39538;52.196;9.892;2022-10-16T04:47:56;100198.34;;;12.41;100.00
16694;BME280;39538;52.196;9.892;2022-10-16T04:50:25;100194.50;;;12.34;100.00
16694;BME280;39538;52.196;9.892;2022-10-16T04:52:52;100193.13;;;12.39;100.00
16694;BME280;39538;52.196;9.892;2022-10-16T04:55:18;100195.56;;;12.42;100.00
16694;BME280;39538;52.196;9.892;2022-10-16T04:57:45;100205.09;;;12.45;100.00
16694;BME280;39538;52.196;9.892;2022-10-16T05:00:12;100213.59;;;12.39;100.00
16694;BME280;39538;52.196;9.892;2022-10-16T05:02:39;100208.16;;;12.40;100.00
16694;BME280;39538;52.196;9.892;2022-10-16T05:05:06;100203.16;;;12.47;100.00
16694;BME280;39538;52.196;9.892;2022-10-16T05:07:34;100220.22;;;12.44;100.00
16694;BME280;39538;52.196;9.892;2022-10-16T05:10:00;100229.25;;;12.53;100.00
16694;BME280;39538;52.196;9.892;2022-10-16T05:12:27;100215.00;;;12.54;100.00
16694;BME280;39538;52.196;9.892;2022-10-16T05:14:53;100207.19;;;12.62;100.00
16694;BME280;39538;52.196;9.892;2022-10-16T05:17:23;100206.00;;;12.55;100.00
16694;BME280;39538;52.196;9.892;2022-10-16T05:19:50;100220.31;;;12.54;100.00
16694;BME280;39538;52.196;9.892;2022-10-16T05:22:17;100207.94;;;12.53;100.00
16694;BME280;39538;52.196;9.892;2022-10-16T05:24:45;100215.00;;;12.54;100.00
16694;BME280;39538;52.196;9.892;2022-10-16T05:27:11;100231.91;;;12.53;100.00
16694;BME280;39538;52.196;9.892;2022-10-16T05:29:44;100234.56;;;12.53;100.00
16694;BME280;39538;52.196;9.892;2022-10-16T05:32:10;100245.06;;;12.66;100.00
16694;BME280;39538;52.196;9.892;2022-10-16T05:34:37;100248.34;;;12.58;100.00
16694;BME280;39538;52.196;9.892;2022-10-16T05:37:03;100246.78;;;12.56;100.00
16694;BME280;39538;52.196;9.892;2022-10-16T05:39:30;100247.44;;;12.48;100.00
16694;BME280;39538;52.196;9.892;2022-10-16T05:41:58;100247.78;;;12.55;100.00
16694;BME280;39538;52.196;9.892;2022-10-16T05:44:24;100248.72;;;12.54;100.00
16694;BME280;39538;52.196;9.892;2022-10-16T05:46:51;100242.78;;;12.61;100.00
16694;BME280;39538;52.196;9.892;2022-10-16T05:49:17;100245.41;;;12.73;100.00
16694;BME280;39538;52.196;9.892;2022-10-16T05:51:44;100249.09;;;12.81;100.00
16694;BME280;39538;52.196;9.892;2022-10-16T05:54:10;100246.03;;;12.86;100.00
16694;BME280;39538;52.196;9.892;2022-10-16T05:56:37;100238.81;;;12.98;100.00
16694;BME280;39538;52.196;9.892;2022-10-16T05:59:05;100259.22;;;13.08;100.00
16694;BME280;39538;52.196;9.892;2022-10-16T06:01:32;100260.13;;;13.19;100.00
16694;BME280;39538;52.196;9.892;2022-10-16T06:03:58;100270.94;;;13.17;100.00
16694;BME280;39538;52.196;9.892;2022-10-16T06:06:27;100281.88;;;13.24;100.00
16694;BME280;39538;52.196;9.892;2022-10-16T06:08:56;100274.41;;;13.29;100.00
16694;BME280;39538;52.196;9.892;2022-10-16T06:11:24;100268.28;;;13.38;100.00
16694;BME280;39538;52.196;9.892;2022-10-16T06:13:52;100271.66;;;13.40;100.00
16694;BME280;39538;52.196;9.892;2022-10-16T06:16:20;100271.53;;;13.52;100.00
16694;BME280;39538;52.196;9.892;2022-10-16T06:18:47;100264.41;;;13.52;100.00
16694;BME280;39538;52.196;9.892;2022-10-16T06:21:16;100273.69;;;13.58;100.00
16694;BME280;39538;52.196;9.892;2022-10-16T06:23:44;100285.22;;;13.68;100.00
16694;BME280;39538;52.196;9.892;2022-10-16T06:26:12;100291.38;;;13.59;100.00
16694;BME280;39538;52.196;9.892;2022-10-16T06:28:39;100296.19;;;13.65;100.00
16694;BME280;39538;52.196;9.892;2022-10-16T06:31:07;100307.16;;;13.72;100.00
16694;BME280;39538;52.196;9.892;2022-10-16T06:33:36;100304.38;;;13.73;99.63
16694;BME280;39538;52.196;9.892;2022-10-16T06:36:04;100302.97;;;13.79;99.56
16694;BME280;39538;52.196;9.892;2022-10-16T06:38:32;100300.75;;;13.84;99.38
16694;BME280;39538;52.196;9.892;2022-10-16T06:40:58;100294.56;;;13.83;98.91
16694;BME280;39538;52.196;9.892;2022-10-16T06:43:25;100307.91;;;13.83;98.91
16694;BME280;39538;52.196;9.892;2022-10-16T06:45:52;100308.50;;;13.87;98.83
16694;BME280;39538;52.196;9.892;2022-10-16T06:48:19;100307.81;;;13.95;98.58
16694;BME280;39538;52.196;9.892;2022-10-16T06:50:56;100314.84;;;13.96;98.45
16694;BME280;39538;52.196;9.892;2022-10-16T06:53:23;100318.94;;;14.00;98.34
16694;BME280;39538;52.196;9.892;2022-10-16T06:55:50;100319.09;;;14.08;97.81
16694;BME280;39538;52.196;9.892;2022-10-16T06:58:17;100327.69;;;14.21;97.54
16694;BME280;39538;52.196;9.892;2022-10-16T07:00:44;100322.13;;;14.34;96.75
16694;BME280;39538;52.196;9.892;2022-10-16T07:03:10;100335.19;;;14.47;95.67
16694;BME280;39538;52.196;9.892;2022-10-16T07:05:37;100340.16;;;14.61;95.11
16694;BME280;39538;52.196;9.892;2022-10-16T07:08:06;100329.34;;;14.72;94.00
16694;BME280;39538;52.196;9.892;2022-10-16T07:10:32;100328.22;;;14.85;93.31
16694;BME280;39538;52.196;9.892;2022-10-16T07:12:59;100328.25;;;14.94;92.03
16694;BME280;39538;52.196;9.892;2022-10-16T07:15:26;100339.06;;;15.03;91.56
16694;BME280;39538;52.196;9.892;2022-10-16T07:17:53;100354.97;;;15.04;91.17
16694;BME280;39538;52.196;9.892;2022-10-16T07:20:20;100349.03;;;15.10;90.35
16694;BME280;39538;52.196;9.892;2022-10-16T07:22:46;100353.41;;;15.11;90.27
16694;BME280;39538;52.196;9.892;2022-10-16T07:25:14;100350.19;;;15.17;89.77
16694;BME280;39538;52.196;9.892;2022-10-16T07:27:41;100345.66;;;15.28;88.81
16694;BME280;39538;52.196;9.892;2022-10-16T07:30:08;100365.63;;;15.43;88.60
16694;BME280;39538;52.196;9.892;2022-10-16T07:32:35;100355.75;;;15.53;87.02
16694;BME280;39538;52.196;9.892;2022-10-16T07:35:02;100363.88;;;15.62;86.51
16694;BME280;39538;52.196;9.892;2022-10-16T07:37:28;100375.28;;;15.64;86.17
16694;BME280;39538;52.196;9.892;2022-10-16T07:39:55;100386.69;;;15.75;85.46
16694;BME280;39538;52.196;9.892;2022-10-16T07:42:22;100378.19;;;15.99;85.52
16694;BME280;39538;52.196;9.892;2022-10-16T07:44:49;100375.91;;;16.60;83.69
16694;BME280;39538;52.196;9.892;2022-10-16T07:47:15;100383.41;;;17.46;78.92
16694;BME280;39538;52.196;9.892;2022-10-16T07:49:42;100389.09;;;18.72;74.02
16694;BME280;39538;52.196;9.892;2022-10-16T07:52:08;100396.94;;;19.49;68.95
16694;BME280;39538;52.196;9.892;2022-10-16T07:54:35;100406.63;;;20.07;65.46
16694;BME280;39538;52.196;9.892;2022-10-16T07:57:01;100395.16;;;20.05;65.38
16694;BME280;39538;52.196;9.892;2022-10-16T07:59:29;100403.28;;;19.64;65.43
16694;BME280;39538;52.196;9.892;2022-10-16T08:01:56;100406.44;;;20.56;62.89
16694;BME280;39538;52.196;9.892;2022-10-16T08:04:22;100405.59;;;20.56;61.68
16694;BME280;39538;52.196;9.892;2022-10-16T08:06:49;100406.00;;;19.89;63.53
16694;BME280;39538;52.196;9.892;2022-10-16T08:09:15;100408.59;;;20.13;64.68
16694;BME280;39538;52.196;9.892;2022-10-16T08:11:42;100408.94;;;20.58;62.24
16694;BME280;39538;52.196;9.892;2022-10-16T08:14:08;100426.16;;;21.34;60.50
16694;BME280;39538;52.196;9.892;2022-10-16T08:16:36;100434.28;;;21.34;59.81
16694;BME280;39538;52.196;9.892;2022-10-16T08:19:03;100431.38;;;20.90;59.99
16694;BME280;39538;52.196;9.892;2022-10-16T08:21:29;100446.88;;;20.00;62.28
16694;BME280;39538;52.196;9.892;2022-10-16T08:23:56;100442.84;;;20.05;64.36
16694;BME280;39538;52.196;9.892;2022-10-16T08:26:22;100442.53;;;20.47;63.29
16694;BME280;39538;52.196;9.892;2022-10-16T08:28:49;100441.25;;;20.27;62.48
16694;BME280;39538;52.196;9.892;2022-10-16T08:31:16;100446.59;;;20.35;62.68
16694;BME280;39538;52.196;9.892;2022-10-16T08:33:44;100450.44;;;19.76;64.15
16694;BME280;39538;52.196;9.892;2022-10-16T08:36:13;100453.81;;;20.42;64.96
16694;BME280;39538;52.196;9.892;2022-10-16T08:38:39;100450.72;;;21.71;60.35
16694;BME280;39538;52.196;9.892;2022-10-16T08:41:20;100450.50;;;22.10;58.06
16694;BME280;39538;52.196;9.892;2022-10-16T08:44:23;100447.88;;;22.98;55.39
16694;BME280;39538;52.196;9.892;2022-10-16T08:47:02;100459.22;;;23.23;53.59
16694;BME280;39538;52.196;9.892;2022-10-16T08:49:36;100463.50;;;23.32;52.67
16694;BME280;39538;52.196;9.892;2022-10-16T08:52:03;100465.91;;;23.70;51.86
16694;BME280;39538;52.196;9.892;2022-10-16T08:54:31;100464.44;;;22.88;53.75
16694;BME280;39538;52.196;9.892;2022-10-16T08:57:09;100462.59;;;23.03;53.34
16694;BME280;39538;52.196;9.892;2022-10-16T08:59:36;100468.25;;;22.27;55.21
16694;BME280;39538;52.196;9.892;2022-10-16T09:02:18;100464.88;;;22.25;54.95
16694;BME280;39538;52.196;9.892;2022-10-16T09:04:56;100472.88;;;21.66;54.79
16694;BME280;39538;52.196;9.892;2022-10-16T09:07:31;100458.75;;;20.31;58.20
16694;BME280;39538;52.196;9.892;2022-10-16T09:10:14;100466.66;;;20.80;58.96
16694;BME280;39538;52.196;9.892;2022-10-16T09:12:51;100480.66;;;21.15;57.54
16694;BME280;39538;52.196;9.892;2022-10-16T09:15:27;100488.56;;;22.23;55.41
16694;BME280;39538;52.196;9.892;2022-10-16T09:18:00;100483.69;;;23.29;51.39
16694;BME280;39538;52.196;9.892;2022-10-16T09:20:36;100488.59;;;23.04;50.60
16694;BME280;39538;52.196;9.892;2022-10-16T09:23:14;100490.94;;;22.18;53.41
16694;BME280;39538;52.196;9.892;2022-10-16T09:25:43;100497.72;;;21.84;54.09
16694;BME280;39538;52.196;9.892;2022-10-16T09:28:11;100499.00;;;22.56;52.54
16694;BME280;39538;52.196;9.892;2022-10-16T09:30:38;100499.53;;;24.25;50.42
16694;BME280;39538;52.196;9.892;2022-10-16T09:33:06;100504.03;;;25.42;46.44
16694;BME280;39538;52.196;9.892;2022-10-16T09:35:38;100509.13;;;26.05;44.23
16694;BME280;39538;52.196;9.892;2022-10-16T09:38:05;100511.34;;;26.48;43.19
16694;BME280;39538;52.196;9.892;2022-10-16T09:40:34;100518.16;;;27.36;41.90
16694;BME280;39538;52.196;9.892;2022-10-16T09:43:06;100516.78;;;27.52;40.56
16694;BME280;39538;52.196;9.892;2022-10-16T09:45:39;100523.41;;;26.86;41.13
16694;BME280;39538;52.196;9.892;2022-10-16T09:48:10;100522.66;;;26.59;41.87
16694;BME280;39538;52.196;9.892;2022-10-16T09:50:38;100525.16;;;26.67;43.03
16694;BME280;39538;52.196;9.892;2022-10-16T09:53:10;100524.34;;;27.11;40.61
16694;BME280;39538;52.196;9.892;2022-10-16T09:55:48;100527.88;;;27.25;40.57
16694;BME280;39538;52.196;9.892;2022-10-16T09:58:15;100525.03;;;26.94;41.32
16694;BME280;39538;52.196;9.892;2022-10-16T10:00:49;100526.19;;;27.24;40.11
16694;BME280;39538;52.196;9.892;2022-10-16T10:03:30;100536.75;;;27.01;39.65
16694;BME280;39538;52.196;9.892;2022-10-16T10:06:03;100541.44;;;26.74;40.68
16694;BME280;39538;52.196;9.892;2022-10-16T10:08:31;100546.66;;;27.40;39.82
16694;BME280;39538;52.196;9.892;2022-10-16T10:10:58;100551.19;;;27.53;38.43
16694;BME280;39538;52.196;9.892;2022-10-16T10:13:24;100544.09;;;27.00;39.28
16694;BME280;39538;52.196;9.892;2022-10-16T10:15:52;100546.34;;;27.10;39.61
16694;BME280;39538;52.196;9.892;2022-10-16T10:18:21;100551.66;;;27.43;38.76
16694;BME280;39538;52.196;9.892;2022-10-16T10:20:57;100550.84;;;27.36;38.81
16694;BME280;39538;52.196;9.892;2022-10-16T10:23:27;100539.25;;;27.09;38.69
16694;BME280;39538;52.196;9.892;2022-10-16T10:26:00;100562.81;;;26.83;38.69
16694;BME280;39538;52.196;9.892;2022-10-16T10:28:50;100555.66;;;26.82;39.31
16694;BME280;39538;52.196;9.892;2022-10-16T10:31:27;100556.88;;;27.00;38.62
16694;BME280;39538;52.196;9.892;2022-10-16T10:34:01;100560.91;;;26.90;38.22
16694;BME280;39538;52.196;9.892;2022-10-16T10:36:34;100565.25;;;27.50;37.71
16694;BME280;39538;52.196;9.892;2022-10-16T10:39:08;100572.53;;;28.20;37.18
16694;BME280;39538;52.196;9.892;2022-10-16T10:42:00;100559.88;;;28.87;35.98
16694;BME280;39538;52.196;9.892;2022-10-16T10:45:04;100571.34;;;29.33;35.10
16694;BME280;39538;52.196;9.892;2022-10-16T10:47:46;100578.41;;;29.71;35.06
16694;BME280;39538;52.196;9.892;2022-10-16T10:50:20;100574.75;;;29.89;34.45
16694;BME280;39538;52.196;9.892;2022-10-16T10:52:57;100583.84;;;29.40;34.24
16694;BME280;39538;52.196;9.892;2022-10-16T10:55:31;100580.84;;;29.30;33.98
16694;BME280;39538;52.196;9.892;2022-10-16T10:58:26;100582.88;;;28.36;35.26
16694;BME280;39538;52.196;9.892;2022-10-16T11:01:04;100587.28;;;28.37;35.18
16694;BME280;39538;52.196;9.892;2022-10-16T11:03:46;100585.75;;;27.21;36.34
16694;BME280;39538;52.196;9.892;2022-10-16T11:06:20;100593.88;;;26.16;37.92
16694;BME280;39538;52.196;9.892;2022-10-16T11:08:53;100585.91;;;26.14;38.83
16694;BME280;39538;52.196;9.892;2022-10-16T11:11:25;100587.16;;;26.65;37.75
16694;BME280;39538;52.196;9.892;2022-10-16T11:13:59;100587.94;;;26.85;37.79
16694;BME280;39538;52.196;9.892;2022-10-16T11:16:29;100583.31;;;26.86;37.74
16694;BME280;39538;52.196;9.892;2022-10-16T11:18:59;100582.09;;;26.62;37.71
16694;BME280;39538;52.196;9.892;2022-10-16T11:21:33;100575.63;;;25.90;38.61
16694;BME280;39538;52.196;9.892;2022-10-16T11:24:08;100579.31;;;25.49;39.18
16694;BME280;39538;52.196;9.892;2022-10-16T11:26:41;100580.03;;;26.37;38.74
16694;BME280;39538;52.196;9.892;2022-10-16T11:29:13;100588.00;;;26.59;37.55
16694;BME280;39538;52.196;9.892;2022-10-16T11:31:46;100592.41;;;26.60;37.35
16694;BME280;39538;52.196;9.892;2022-10-16T11:34:19;100590.09;;;26.43;37.84
16694;BME280;39538;52.196;9.892;2022-10-16T11:36:51;100593.16;;;26.80;37.18
16694;BME280;39538;52.196;9.892;2022-10-16T11:39:21;100601.19;;;26.35;37.76
16694;BME280;39538;52.196;9.892;2022-10-16T11:41:52;100608.09;;;26.64;36.18
16694;BME280;39538;52.196;9.892;2022-10-16T11:44:39;100607.97;;;27.11;35.93
16694;BME280;39538;52.196;9.892;2022-10-16T11:47:16;100603.84;;;27.47;34.98
16694;BME280;39538;52.196;9.892;2022-10-16T11:49:47;100613.38;;;27.24;35.04
16694;BME280;39538;52.196;9.892;2022-10-16T11:52:20;100611.41;;;27.45;34.50
16694;BME280;39538;52.196;9.892;2022-10-16T11:54:51;100618.53;;;28.16;34.03
16694;BME280;39538;52.196;9.892;2022-10-16T11:57:24;100614.34;;;28.38;33.51
16694;BME280;39538;52.196;9.892;2022-10-16T11:59:55;100613.66;;;28.50;33.07
16694;BME280;39538;52.196;9.892;2022-10-16T12:02:33;100620.75;;;29.50;32.01
16694;BME280;39538;52.196;9.892;2022-10-16T12:05:13;100627.00;;;29.20;31.82
16694;BME280;39538;52.196;9.892;2022-10-16T12:07:48;100626.63;;;28.54;32.49
16694;BME280;39538;52.196;9.892;2022-10-16T12:10:22;100624.66;;;28.11;34.00
16694;BME280;39538;52.196;9.892;2022-10-16T12:12:51;100617.31;;;27.73;33.94
16694;BME280;39538;52.196;9.892;2022-10-16T12:15:23;100627.06;;;28.26;33.75
16694;BME280;39538;52.196;9.892;2022-10-16T12:17:50;100628.44;;;28.10;34.02
16694;BME280;39538;52.196;9.892;2022-10-16T12:20:21;100626.91;;;27.83;33.85
16694;BME280;39538;52.196;9.892;2022-10-16T12:22:50;100628.34;;;27.53;35.21
16694;BME280;39538;52.196;9.892;2022-10-16T12:25:22;100622.19;;;28.03;33.36
16694;BME280;39538;52.196;9.892;2022-10-16T12:28:02;100628.09;;;28.00;33.19
16694;BME280;39538;52.196;9.892;2022-10-16T12:30:32;100625.50;;;28.62;32.87
16694;BME280;39538;52.196;9.892;2022-10-16T12:33:01;100628.59;;;29.58;31.75
16694;BME280;39538;52.196;9.892;2022-10-16T12:35:30;100632.06;;;28.98;31.59
16694;BME280;39538;52.196;9.892;2022-10-16T12:38:06;100636.75;;;28.72;33.15
16694;BME280;39538;52.196;9.892;2022-10-16T12:40:35;100636.16;;;28.89;32.67
16694;BME280;39538;52.196;9.892;2022-10-16T12:43:26;100630.22;;;27.98;32.72
16694;BME280;39538;52.196;9.892;2022-10-16T12:46:01;100636.31;;;27.55;34.03
16694;BME280;39538;52.196;9.892;2022-10-16T12:48:29;100645.34;;;26.84;35.17
16694;BME280;39538;52.196;9.892;2022-10-16T12:50:56;100643.44;;;26.84;35.09
16694;BME280;39538;52.196;9.892;2022-10-16T12:53:24;100644.41;;;27.23;35.06
16694;BME280;39538;52.196;9.892;2022-10-16T12:56:00;100642.09;;;27.72;34.29
16694;BME280;39538;52.196;9.892;2022-10-16T12:58:59;100655.25;;;28.45;34.09
16694;BME280;39538;52.196;9.892;2022-10-16T13:01:40;100656.38;;;28.37;32.90